createdAt,value
2022-08-30T00:00:11.871Z,16.60
2022-08-30T00:04:13.483Z,16.40
2022-08-30T00:08:15.442Z,16.30
2022-08-30T00:12:17.546Z,16.40
2022-08-30T00:16:20.536Z,16.40
2022-08-30T00:20:24.834Z,16.30
2022-08-30T00:24:26.568Z,16.20
2022-08-30T00:28:28.681Z,16.10
2022-08-30T00:32:30.377Z,16.30
2022-08-30T00:36:31.972Z,16.40
2022-08-30T00:40:33.823Z,16.20
2022-08-30T00:44:35.671Z,16.00
2022-08-30T00:48:40.988Z,15.90
2022-08-30T00:52:44.495Z,15.80
2022-08-30T00:56:48.018Z,15.90
2022-08-30T01:00:50.714Z,15.70
2022-08-30T01:04:53.025Z,15.50
2022-08-30T01:08:54.737Z,15.60
2022-08-30T01:12:56.421Z,15.60
2022-08-30T01:16:58.070Z,15.70
2022-08-30T01:21:10.928Z,15.80
2022-08-30T01:25:13.623Z,15.60
2022-08-30T01:29:17.575Z,15.50
2022-08-30T01:33:22.155Z,15.50
2022-08-30T01:37:26.710Z,15.50
2022-08-30T01:41:30.136Z,15.30
2022-08-30T01:45:31.822Z,15.10
2022-08-30T01:49:33.537Z,15.30
2022-08-30T01:53:35.238Z,15.40
2022-08-30T01:57:36.966Z,15.20
2022-08-30T02:01:39.939Z,15.00
2022-08-30T02:05:41.870Z,15.10
2022-08-30T02:09:44.066Z,14.90
2022-08-30T02:13:47.883Z,14.70
2022-08-30T02:17:49.640Z,14.60
2022-08-30T02:21:51.477Z,14.70
2022-08-30T02:25:53.242Z,14.60
2022-08-30T02:29:54.892Z,14.40
2022-08-30T02:33:56.683Z,14.50
2022-08-30T02:37:58.407Z,14.50
2022-08-30T02:42:00.192Z,14.50
2022-08-30T02:46:01.865Z,14.50
2022-08-30T02:50:04.721Z,14.50
2022-08-30T02:54:06.682Z,14.50
2022-08-30T02:58:08.756Z,14.40
2022-08-30T03:02:11.668Z,14.30
2022-08-30T03:06:13.768Z,14.20
2022-08-30T03:10:16.227Z,14.20
2022-08-30T03:14:18.114Z,14.40
2022-08-30T03:18:20.900Z,14.30
2022-08-30T03:22:22.826Z,14.40
2022-08-30T03:26:24.397Z,14.50
2022-08-30T03:30:26.022Z,14.30
2022-08-30T03:34:27.738Z,14.30
2022-08-30T03:38:29.389Z,14.30
2022-08-30T03:42:31.024Z,14.30
2022-08-30T03:46:37.179Z,14.40
2022-08-30T03:50:40.536Z,14.20
2022-08-30T03:54:42.156Z,14.00
2022-08-30T03:58:44.067Z,14.20
2022-08-30T04:02:45.833Z,14.20
2022-08-30T04:06:47.525Z,14.00
2022-08-30T04:10:49.449Z,13.80
2022-08-30T04:14:51.133Z,13.70
2022-08-30T04:18:53.104Z,13.60
2022-08-30T04:22:54.748Z,13.70
2022-08-30T04:26:56.429Z,13.60
2022-08-30T04:30:58.127Z,13.50
2022-08-30T04:34:59.791Z,13.40
2022-08-30T04:39:01.409Z,13.40
2022-08-30T04:43:03.739Z,13.20
2022-08-30T04:47:05.432Z,13.20
2022-08-30T04:51:08.292Z,13.30
2022-08-30T04:55:10.685Z,13.20
2022-08-30T04:59:13.281Z,13.20
2022-08-30T05:03:18.266Z,13.30
2022-08-30T05:07:20.185Z,13.40
2022-08-30T05:11:22.542Z,13.60
2022-08-30T05:15:24.335Z,13.50
2022-08-30T05:19:26.230Z,13.50
2022-08-30T05:23:27.873Z,13.50
2022-08-30T05:27:29.543Z,13.50
2022-08-30T05:31:32.880Z,13.70
2022-08-30T05:35:34.697Z,13.80
2022-08-30T05:39:50.853Z,13.90
2022-08-30T05:43:54.425Z,13.80
2022-08-30T05:47:56.363Z,14.10
2022-08-30T05:51:58.027Z,14.20
2022-08-30T05:56:00.992Z,14.30
2022-08-30T06:00:07.808Z,14.40
2022-08-30T06:04:10.684Z,14.50
2022-08-30T06:08:12.565Z,14.90
2022-08-30T06:12:14.378Z,15.10
2022-08-30T06:16:17.422Z,15.40
2022-08-30T06:20:20.396Z,15.90
2022-08-30T06:24:35.670Z,15.90
2022-08-30T06:28:43.123Z,16.20
2022-08-30T06:32:47.730Z,16.60
2022-08-30T06:36:49.421Z,16.90
2022-08-30T06:40:51.279Z,17.20
2022-08-30T06:44:55.262Z,17.30
2022-08-30T06:48:57.501Z,17.50
2022-08-30T06:53:06.035Z,17.70
2022-08-30T06:57:07.957Z,18.10
2022-08-30T07:01:16.941Z,18.00
2022-08-30T07:05:22.153Z,17.70
2022-08-30T07:09:24.398Z,18.00
2022-08-30T07:13:28.471Z,18.20
2022-08-30T07:17:48.954Z,17.90
2022-08-30T07:21:50.832Z,17.90
2022-08-30T07:25:52.871Z,18.30
2022-08-30T07:29:54.781Z,18.70
2022-08-30T07:33:56.807Z,18.60
2022-08-30T07:37:58.985Z,18.70
2022-08-30T07:42:00.812Z,18.80
2022-08-30T07:46:03.812Z,19.00
2022-08-30T07:50:06.845Z,19.30
2022-08-30T07:54:08.675Z,19.60
2022-08-30T07:58:10.319Z,19.80
2022-08-30T08:02:12.003Z,20.00
2022-08-30T08:06:15.044Z,20.20
2022-08-30T08:10:18.763Z,20.40
2022-08-30T08:14:21.766Z,20.10
2022-08-30T08:18:23.389Z,20.40
2022-08-30T08:22:25.000Z,20.50
2022-08-30T08:26:27.070Z,20.50
2022-08-30T08:30:28.759Z,20.30
2022-08-30T08:34:30.917Z,20.10
2022-08-30T08:38:32.569Z,20.50
2022-08-30T08:42:48.757Z,20.70
2022-08-30T08:46:50.479Z,21.00
2022-08-30T08:51:10.912Z,21.10
2022-08-30T08:55:14.158Z,21.20
2022-08-30T08:59:16.210Z,21.10
2022-08-30T09:03:19.810Z,21.20
2022-08-30T09:07:23.716Z,21.20
2022-08-30T09:11:27.002Z,21.30
2022-08-30T09:15:30.207Z,21.50
2022-08-30T09:19:51.775Z,21.70
2022-08-30T09:23:59.203Z,22.00
2022-08-30T09:28:12.367Z,21.90
2022-08-30T09:32:25.513Z,22.10
2022-08-30T09:36:29.322Z,22.50
2022-08-30T09:40:34.120Z,22.40
2022-08-30T09:44:38.234Z,22.60
2022-08-30T09:48:44.590Z,23.20
2022-08-30T09:53:09.838Z,22.90
2022-08-30T09:57:17.711Z,23.10
2022-08-30T10:01:24.885Z,23.20
2022-08-30T10:05:42.573Z,23.40
2022-08-30T10:10:08.532Z,23.70
2022-08-30T10:14:16.288Z,24.10
2022-08-30T10:18:37.005Z,24.20
2022-08-30T10:22:51.052Z,24.50
2022-08-30T10:26:52.996Z,24.30
2022-08-30T10:31:07.907Z,24.70
2022-08-30T10:35:19.612Z,24.80
2022-08-30T10:39:24.711Z,24.90
2022-08-30T10:43:31.757Z,25.00
2022-08-30T10:47:39.444Z,25.20
2022-08-30T10:51:50.376Z,25.20
2022-08-30T10:55:54.954Z,25.40
2022-08-30T10:59:59.652Z,25.00
2022-08-30T11:04:04.346Z,25.20
2022-08-30T11:08:09.865Z,25.30
2022-08-30T11:12:31.183Z,25.60
2022-08-30T11:16:41.890Z,25.70
2022-08-30T11:20:50.735Z,25.90
2022-08-30T11:25:11.564Z,26.20
2022-08-30T11:29:32.896Z,26.10
2022-08-30T11:33:42.599Z,26.10
2022-08-30T11:37:48.874Z,26.30
2022-08-30T11:42:10.171Z,26.20
2022-08-30T11:46:17.527Z,26.40
2022-08-30T11:50:21.538Z,26.60
2022-08-30T11:54:26.330Z,26.60
2022-08-30T11:58:33.866Z,26.40
2022-08-30T12:02:47.039Z,26.60
2022-08-30T12:06:59.098Z,26.70
2022-08-30T12:11:01.539Z,26.30
2022-08-30T12:15:04.184Z,26.50
2022-08-30T12:19:16.231Z,26.20
2022-08-30T12:23:23.426Z,26.60
2022-08-30T12:27:27.758Z,26.80
2022-08-30T12:31:40.719Z,27.00
2022-08-30T12:35:43.495Z,26.60
2022-08-30T12:39:45.455Z,27.10
2022-08-30T12:43:55.915Z,27.10
2022-08-30T12:47:59.392Z,27.10
2022-08-30T12:52:20.153Z,27.30
2022-08-30T12:56:40.538Z,27.00
2022-08-30T13:00:45.320Z,27.40
2022-08-30T13:04:48.145Z,27.20
2022-08-30T13:08:51.910Z,27.10
2022-08-30T13:13:01.939Z,27.30
2022-08-30T13:17:12.055Z,27.10
2022-08-30T13:21:20.942Z,27.10
2022-08-30T13:25:22.881Z,27.30
2022-08-30T13:29:26.086Z,26.80
2022-08-30T13:33:28.067Z,27.10
2022-08-30T13:37:47.250Z,27.30
2022-08-30T13:41:51.607Z,26.80
2022-08-30T13:45:53.462Z,27.30
2022-08-30T13:49:55.780Z,27.40
2022-08-30T13:53:58.321Z,27.30
2022-08-30T13:58:00.483Z,27.10
2022-08-30T14:02:11.415Z,27.10
2022-08-30T14:06:32.243Z,27.10
2022-08-30T14:10:46.437Z,26.90
2022-08-30T14:14:48.705Z,26.90
2022-08-30T14:18:50.341Z,27.10
2022-08-30T14:22:52.334Z,26.90
2022-08-30T14:26:54.028Z,27.10
2022-08-30T14:30:55.917Z,26.70
2022-08-30T14:34:59.168Z,26.90
2022-08-30T14:39:01.039Z,27.30
2022-08-30T14:43:02.854Z,27.10
2022-08-30T14:47:04.826Z,26.90
2022-08-30T14:51:16.883Z,27.30
2022-08-30T14:55:19.057Z,27.20
2022-08-30T14:59:21.394Z,27.30
2022-08-30T15:03:24.463Z,27.00
2022-08-30T15:07:28.718Z,27.20
2022-08-30T15:11:36.792Z,26.80
2022-08-30T15:15:41.758Z,26.80
2022-08-30T15:19:43.473Z,26.80
2022-08-30T15:23:45.284Z,26.80
2022-08-30T15:27:46.983Z,26.90
2022-08-30T15:31:51.804Z,26.90
2022-08-30T15:35:58.431Z,27.10
2022-08-30T15:40:10.563Z,27.20
2022-08-30T15:44:16.190Z,27.40
2022-08-30T15:48:18.891Z,27.30
2022-08-30T15:52:31.507Z,27.30
2022-08-30T15:56:36.967Z,27.30
2022-08-30T16:00:45.164Z,27.50
2022-08-30T16:04:47.590Z,27.30
2022-08-30T16:08:51.559Z,27.20
2022-08-30T16:12:54.973Z,27.20
2022-08-30T16:17:00.720Z,27.50
2022-08-30T16:21:10.716Z,26.90
2022-08-30T16:25:12.547Z,27.10
2022-08-30T16:29:15.097Z,27.10
2022-08-30T16:33:19.198Z,27.00
2022-08-30T16:37:21.131Z,27.10
2022-08-30T16:41:23.355Z,27.20
2022-08-30T16:45:28.587Z,27.00
2022-08-30T16:49:33.302Z,27.20
2022-08-30T16:53:35.428Z,26.90
2022-08-30T16:57:38.747Z,26.60
2022-08-30T17:01:43.490Z,26.20
2022-08-30T17:05:47.024Z,26.00
2022-08-30T17:09:51.650Z,25.90
2022-08-30T17:13:57.429Z,25.60
2022-08-30T17:17:59.123Z,25.40
2022-08-30T17:22:01.075Z,25.40
2022-08-30T17:26:05.920Z,25.10
2022-08-30T17:30:08.203Z,25.10
2022-08-30T17:34:11.767Z,25.00
2022-08-30T17:38:13.558Z,24.90
2022-08-30T17:42:15.464Z,24.80
2022-08-30T17:46:18.592Z,24.70
2022-08-30T17:50:24.009Z,24.60
2022-08-30T17:54:31.174Z,24.40
2022-08-30T17:58:34.687Z,24.30
2022-08-30T18:02:37.311Z,24.20
2022-08-30T18:06:39.991Z,24.20
2022-08-30T18:10:42.050Z,24.00
2022-08-30T18:14:44.867Z,24.00
2022-08-30T18:18:46.736Z,23.90
2022-08-30T18:22:49.131Z,23.70
2022-08-30T18:26:51.112Z,23.70
2022-08-30T18:30:55.979Z,23.50
2022-08-30T18:34:57.768Z,23.50
2022-08-30T18:38:59.789Z,23.50
2022-08-30T18:43:08.047Z,23.30
2022-08-30T18:47:10.015Z,23.30
2022-08-30T18:51:16.737Z,23.30
2022-08-30T18:55:18.856Z,23.20
2022-08-30T18:59:20.980Z,23.10
2022-08-30T19:03:24.284Z,22.90
2022-08-30T19:07:28.972Z,23.00
2022-08-30T19:11:33.707Z,22.90
2022-08-30T19:15:36.108Z,22.80
2022-08-30T19:19:47.462Z,22.80
2022-08-30T19:23:54.943Z,22.80
2022-08-30T19:27:57.118Z,22.60
2022-08-30T19:31:59.173Z,22.60
2022-08-30T19:36:01.232Z,22.50
2022-08-30T19:40:08.540Z,22.30
2022-08-30T19:44:10.357Z,22.20
2022-08-30T19:48:13.318Z,22.20
2022-08-30T19:52:15.223Z,22.20
2022-08-30T19:56:17.007Z,22.20
2022-08-30T20:00:19.247Z,22.10
2022-08-30T20:04:23.314Z,22.10
2022-08-30T20:08:26.291Z,22.00
2022-08-30T20:12:27.906Z,21.90
2022-08-30T20:16:37.175Z,21.90
2022-08-30T20:20:39.470Z,21.80
2022-08-30T20:24:43.770Z,21.80
2022-08-30T20:28:45.891Z,21.80
2022-08-30T20:32:47.526Z,21.80
2022-08-30T20:36:49.254Z,21.80
2022-08-30T20:40:52.566Z,21.60
2022-08-30T20:44:54.347Z,21.50
2022-08-30T20:48:55.888Z,21.40
2022-08-30T20:52:57.654Z,21.40
2022-08-30T20:56:59.328Z,21.20
2022-08-30T21:01:01.025Z,21.20
2022-08-30T21:05:05.260Z,21.00
2022-08-30T21:09:07.699Z,21.00
2022-08-30T21:13:09.641Z,21.00
2022-08-30T21:17:11.325Z,21.00
2022-08-30T21:21:14.916Z,20.80
2022-08-30T21:25:16.610Z,20.80
2022-08-30T21:29:18.265Z,20.90
2022-08-30T21:33:19.948Z,20.90
2022-08-30T21:37:21.789Z,21.00
2022-08-30T21:41:23.772Z,21.10
2022-08-30T21:45:28.610Z,21.00
2022-08-30T21:49:30.544Z,21.20
2022-08-30T21:53:32.309Z,21.30
2022-08-30T21:57:33.951Z,21.10
2022-08-30T22:01:36.312Z,20.80
2022-08-30T22:05:39.308Z,20.70
2022-08-30T22:09:43.848Z,20.60
2022-08-30T22:13:46.877Z,20.30
2022-08-30T22:17:49.724Z,20.30
2022-08-30T22:21:51.627Z,20.10
2022-08-30T22:25:53.242Z,19.90
2022-08-30T22:29:54.826Z,19.90
2022-08-30T22:33:56.464Z,19.90
2022-08-30T22:37:58.318Z,19.80
2022-08-30T22:42:00.106Z,19.80
2022-08-30T22:46:01.979Z,19.70
2022-08-30T22:50:03.817Z,19.80
2022-08-30T22:54:06.341Z,19.70
2022-08-30T22:58:08.003Z,19.70
2022-08-30T23:02:09.628Z,19.80
2022-08-30T23:06:11.826Z,19.80
2022-08-30T23:10:13.829Z,19.80
2022-08-30T23:14:15.512Z,19.70
2022-08-30T23:18:18.080Z,19.70
2022-08-30T23:22:19.705Z,19.60
2022-08-30T23:26:40.166Z,19.80
2022-08-30T23:31:00.386Z,19.90
2022-08-30T23:35:20.959Z,19.80
2022-08-30T23:39:50.373Z,19.70
2022-08-30T23:44:10.473Z,19.70
2022-08-30T23:48:30.743Z,19.80
2022-08-30T23:52:50.899Z,19.90
2022-08-30T23:57:11.022Z,20.00
